Centerview, Texas
Current Conditions -  °F | °C
As of 2:55 AM on Thursday 23 Oct 2014 (Local Time) from KDKR Reporting Station
Clear Clear  
Wind Chill: 64°   Ceiling: Unl
Heat Index: 64°   Visibility: 10mi
Dew Point: 57°   Wind: 3mph
Humidity: 77%   Direction: 90°E
Pressure: 30.15"   Gusts: NA
Location:  31.2807°N, 95.8748°W
Report Text: KDKR 230755Z AUTO 09003KT 10SM CLR 18/14 A3015 RMK AO2
Loading
Personal Weather Stations






























Interactive Weather Map
Tropical Storm Tracking
New forecast layout! Learn more

10-Day Weather Forecast

Advertisements
Track Severe Weather on mobile